Time;durP1;ratioP1;P1;durP2;ratioP2;P2;SDS_P1;SDS_P2;PMS_P1;PMS_P2;Temp;Humidity;BMP_temperature;BMP_pressure;BME280_temperature;BME280_humidity;BME280_pressure;Samples;Min_cycle;Max_cycle;Signal;HPM_P1;HPM_P2
2023/10/15 00:00:17;;;;;;;1.23;0.20;;;10.90;1.00;;;;;;5153485;27;20480;-60
2023/10/15 00:02:45;;;;;;;1.50;0.20;;;11.10;36.70;;;;;;5152748;27;20481;-59
2023/10/15 00:05:16;;;;;;;0.90;0.30;;;11.30;1.00;;;;;;5154719;27;20874;-60
2023/10/15 00:07:43;;;;;;;0.80;0.27;;;11.20;1.00;;;;;;5154700;27;20499;-60
2023/10/15 00:10:11;;;;;;;0.50;0.20;;;11.40;1.00;;;;;;5153313;27;20424;-60
2023/10/15 00:12:39;;;;;;;1.13;0.30;;;11.40;99.90;;;;;;5153744;27;20507;-61
2023/10/15 00:15:13;;;;;;;1.00;0.30;;;11.40;99.90;;;;;;5154221;27;20413;-60
2023/10/15 00:17:40;;;;;;;0.80;0.30;;;11.30;99.90;;;;;;5154596;27;20442;-59
2023/10/15 00:20:10;;;;;;;0.70;0.20;;;11.20;99.90;;;;;;5155342;27;20413;-61
2023/10/15 00:22:39;;;;;;;0.90;0.30;;;11.20;99.90;;;;;;5154550;27;20428;-59
2023/10/15 00:25:09;;;;;;;0.90;0.30;;;11.20;1.00;;;;;;5153555;27;20547;-59
2023/10/15 00:27:37;;;;;;;0.70;0.20;;;11.20;99.90;;;;;;5154010;27;20503;-61
2023/10/15 00:30:06;;;;;;;1.03;0.23;;;11.20;1.00;;;;;;5154156;27;20441;-60
2023/10/15 00:32:33;;;;;;;0.95;0.20;;;11.20;1.00;;;;;;5154269;27;20413;-60
2023/10/15 00:35:00;;;;;;;0.90;0.30;;;11.20;1.00;;;;;;5153787;27;20753;-60
2023/10/15 00:37:27;;;;;;;1.10;0.30;;;11.20;1.00;;;;;;5152383;27;20519;-60
2023/10/15 00:39:59;;;;;;;0.98;0.30;;;11.40;1.00;;;;;;5154459;27;20424;-59
2023/10/15 00:42:30;;;;;;;0.82;0.20;;;11.50;20.50;;;;;;5152313;27;20413;-59
2023/10/15 00:44:58;;;;;;;0.90;0.20;;;11.50;1.00;;;;;;5153369;27;20431;-60
2023/10/15 00:47:25;;;;;;;0.70;0.30;;;11.40;99.90;;;;;;5151916;27;20751;-61
2023/10/15 00:49:55;;;;;;;1.17;0.30;;;11.30;1.00;;;;;;5151957;27;20781;-60
2023/10/15 00:52:29;;;;;;;0.60;0.30;;;11.20;1.00;;;;;;5151948;27;20471;-61
2023/10/15 00:54:58;;;;;;;0.52;0.20;;;11.20;1.00;;;;;;5152306;27;20427;-61
2023/10/15 00:57:41;;;;;;;1.98;0.20;;;11.20;1.00;;;;;;5154118;27;20425;-60
2023/10/15 01:00:37;;;;;;;1.23;0.30;;;11.30;1.00;;;;;;5152723;27;20427;-60
2023/10/15 01:02:58;;;;;;;0.63;0.20;;;11.30;1.00;;;;;;5153988;27;20840;-59
2023/10/15 01:05:28;;;;;;;0.50;0.20;;;11.50;1.00;;;;;;5152631;27;20472;-59
2023/10/15 01:07:55;;;;;;;0.50;0.20;;;11.50;99.90;;;;;;5154913;27;20409;-60
2023/10/15 01:10:32;;;;;;;0.60;0.20;;;11.60;1.00;;;;;;5156596;27;20417;-60
2023/10/15 01:13:10;;;;;;;0.63;0.20;;;11.70;99.90;;;;;;5155146;27;20427;-59
2023/10/15 01:15:42;;;;;;;0.40;0.20;;;11.60;99.90;;;;;;5152069;27;20469;-59
2023/10/15 01:18:10;;;;;;;0.40;0.20;;;11.60;99.90;;;;;;5152214;27;20416;-60
2023/10/15 01:20:40;;;;;;;1.00;0.20;;;11.60;99.90;;;;;;5151317;27;20424;-58
2023/10/15 01:23:07;;;;;;;1.20;0.20;;;11.70;99.90;;;;;;5151959;27;20412;-60
2023/10/15 01:25:45;;;;;;;1.60;0.30;;;11.70;99.90;;;;;;5151304;27;20765;-61
2023/10/15 01:28:13;;;;;;;0.80;0.20;;;11.70;99.90;;;;;;5151385;27;20427;-60
2023/10/15 01:30:41;;;;;;;0.50;0.20;;;11.90;99.90;;;;;;5154008;27;20428;-60
2023/10/15 01:33:10;;;;;;;1.20;0.20;;;11.90;99.90;;;;;;5153913;27;20887;-60
2023/10/15 01:35:38;;;;;;;1.10;0.20;;;12.00;99.90;;;;;;5154042;27;20513;-60
2023/10/15 01:38:20;;;;;;;0.80;0.22;;;11.90;56.00;;;;;;5154471;27;20525;-59
2023/10/15 01:40:56;;;;;;;0.40;0.20;;;11.80;26.20;;;;;;5153371;27;20459;-60
2023/10/15 01:43:23;;;;;;;0.45;0.20;;;11.90;99.90;;;;;;5153185;27;20804;-60
2023/10/15 01:45:56;;;;;;;1.60;0.20;;;12.00;1.00;;;;;;5154401;27;20921;-59
2023/10/15 01:48:30;;;;;;;1.20;0.20;;;11.90;37.30;;;;;;5154341;27;20499;-60
2023/10/15 01:51:06;;;;;;;0.50;0.20;;;12.00;1.00;;;;;;5155130;27;20456;-59
2023/10/15 01:53:36;;;;;;;0.60;0.20;;;12.10;1.00;;;;;;5154735;27;20500;-60
2023/10/15 01:56:05;;;;;;;1.13;0.20;;;12.20;1.00;;;;;;5158458;27;20408;-59
2023/10/15 01:58:33;;;;;;;0.40;0.10;;;12.10;1.00;;;;;;5159544;27;20421;-60
2023/10/15 02:01:13;;;;;;;0.93;0.30;;;12.20;1.00;;;;;;5159194;27;20497;-60
2023/10/15 02:03:41;;;;;;;0.80;0.20;;;12.00;1.00;;;;;;5159683;27;20515;-60
2023/10/15 02:06:08;;;;;;;0.50;0.20;;;11.50;1.00;;;;;;5159387;27;20413;-60
2023/10/15 02:08:38;;;;;;;1.38;0.20;;;11.10;99.90;;;;;;5158419;27;20423;-61
2023/10/15 02:11:21;;;;;;;0.75;0.25;;;11.10;1.00;;;;;;5157757;27;20413;-61
2023/10/15 02:13:48;;;;;;;0.60;0.28;;;11.00;1.00;;;;;;5158323;27;20444;-61
2023/10/15 02:16:25;;;;;;;1.17;0.22;;;10.90;18.70;;;;;;5157812;27;20621;-61
2023/10/15 02:18:52;;;;;;;1.20;0.30;;;10.90;99.90;;;;;;5157018;27;20489;-61
2023/10/15 02:21:19;;;;;;;1.50;0.20;;;10.90;99.90;;;;;;5155813;27;20431;-61
2023/10/15 02:23:50;;;;;;;1.40;0.30;;;10.90;1.00;;;;;;5153988;27;21094;-61
2023/10/15 02:26:23;;;;;;;0.80;0.30;;;10.90;99.90;;;;;;5155067;27;20409;-61
2023/10/15 02:28:53;;;;;;;0.77;0.30;;;10.90;81.80;;;;;;5154980;27;20420;-61
2023/10/15 02:31:22;;;;;;;0.40;0.20;;;11.00;1.00;;;;;;5156220;27;20421;-61
2023/10/15 02:33:50;;;;;;;1.10;0.30;;;11.10;99.90;;;;;;5156258;27;20893;-61
2023/10/15 02:36:17;;;;;;;0.50;0.20;;;11.30;1.00;;;;;;5156454;27;20456;-62
2023/10/15 02:38:53;;;;;;;0.60;0.20;;;11.40;1.00;;;;;;5156203;27;20856;-60
2023/10/15 02:41:25;;;;;;;0.50;0.20;;;11.50;99.90;;;;;;5156854;27;20719;-61
2023/10/15 02:43:55;;;;;;;0.70;0.30;;;11.60;99.90;;;;;;5156831;27;20465;-61
2023/10/15 02:46:24;;;;;;;0.70;0.20;;;11.70;1.00;;;;;;5156653;27;20425;-61
2023/10/15 02:48:53;;;;;;;1.30;0.20;;;11.60;1.00;;;;;;5156628;27;20604;-60
2023/10/15 02:51:24;;;;;;;1.00;0.20;;;11.50;1.00;;;;;;5157823;27;20704;-60
2023/10/15 02:53:53;;;;;;;0.50;0.28;;;11.60;71.70;;;;;;5158862;27;20412;-60
2023/10/15 02:56:22;;;;;;;0.52;0.22;;;11.60;1.00;;;;;;5156708;27;20413;-60
2023/10/15 02:58:50;;;;;;;0.65;0.20;;;11.60;1.00;;;;;;5156178;27;20437;-61
2023/10/15 03:01:20;;;;;;;0.70;0.20;;;11.50;1.00;;;;;;5157845;27;20484;-60
2023/10/15 03:03:52;;;;;;;0.73;0.30;;;11.60;1.00;;;;;;5156966;27;20428;-60
2023/10/15 03:06:24;;;;;;;0.75;0.20;;;11.50;99.90;;;;;;5155320;27;20416;-61
2023/10/15 03:08:52;;;;;;;0.60;0.20;;;11.60;99.90;;;;;;5156155;27;20421;-61
2023/10/15 03:11:22;;;;;;;0.60;0.20;;;11.70;99.90;;;;;;5155581;27;20409;-58
2023/10/15 03:13:53;;;;;;;1.20;0.20;;;11.90;1.00;;;;;;5155185;27;20419;-60
2023/10/15 03:16:21;;;;;;;0.68;0.30;;;12.00;1.00;;;;;;5152046;27;20429;-60
2023/10/15 03:18:49;;;;;;;0.70;0.30;;;12.00;59.10;;;;;;5153891;27;20412;-60
2023/10/15 03:21:26;;;;;;;1.50;0.20;;;11.90;1.00;;;;;;5154629;27;20423;-60
2023/10/15 03:23:56;;;;;;;0.50;0.30;;;11.70;99.90;;;;;;5155556;27;20858;-60
2023/10/15 03:26:30;;;;;;;0.70;0.30;;;11.70;99.90;;;;;;5155194;27;20445;-60
2023/10/15 03:28:59;;;;;;;0.50;0.20;;;11.80;1.00;;;;;;5155202;27;20415;-60
2023/10/15 03:31:27;;;;;;;1.10;0.20;;;11.70;1.00;;;;;;5157491;27;20499;-60
2023/10/15 03:36:57;;;;;;;0.50;0.30;;;11.60;1.00;;;;;;5156729;27;20703;-61
2023/10/15 03:39:53;;;;;;;0.60;0.30;;;11.40;1.00;;;;;;5157556;27;20412;-61
2023/10/15 03:42:18;;;;;;;0.50;0.22;;;11.10;1.00;;;;;;5157425;27;20440;-61
2023/10/15 03:44:47;;;;;;;1.60;0.20;;;10.90;99.90;;;;;;5157781;27;20508;-61
2023/10/15 03:47:15;;;;;;;0.70;0.20;;;11.00;1.00;;;;;;5157050;27;20519;-61
2023/10/15 03:49:44;;;;;;;1.60;0.20;;;11.00;32.60;;;;;;5157644;27;20831;-61
2023/10/15 03:52:14;;;;;;;1.20;0.20;;;11.00;1.00;;;;;;5157691;27;20467;-61
2023/10/15 03:54:47;;;;;;;0.80;0.20;;;11.00;1.00;;;;;;5157106;27;20447;-61
2023/10/15 03:57:17;;;;;;;0.60;0.20;;;11.00;26.10;;;;;;5157144;27;20432;-61
2023/10/15 03:59:50;;;;;;;0.70;0.30;;;11.00;99.90;;;;;;5154737;27;20512;-60
2023/10/15 04:02:22;;;;;;;1.20;0.30;;;11.10;99.90;;;;;;5153902;27;20413;-60
2023/10/15 04:04:56;;;;;;;0.65;0.20;;;11.10;1.00;;;;;;5153907;27;20496;-60
2023/10/15 04:07:25;;;;;;;1.75;0.20;;;11.00;1.00;;;;;;5155032;27;21064;-61
2023/10/15 04:09:52;;;;;;;1.73;0.30;;;11.00;99.90;;;;;;5155867;27;20416;-61
2023/10/15 04:12:20;;;;;;;0.55;0.20;;;11.00;99.90;;;;;;5156022;27;20404;-61
2023/10/15 04:14:47;;;;;;;0.73;0.28;;;10.90;99.90;;;;;;5155446;27;20424;-61
2023/10/15 04:17:15;;;;;;;0.88;0.30;;;10.90;99.90;;;;;;5155492;27;20420;-61
2023/10/15 04:19:43;;;;;;;1.00;0.20;;;10.90;99.90;;;;;;5156747;27;20496;-61
2023/10/15 04:22:14;;;;;;;2.60;0.30;;;11.00;99.90;;;;;;5156539;27;20416;-61
2023/10/15 04:24:44;;;;;;;3.20;0.30;;;11.20;99.90;;;;;;5156892;27;20421;-60
2023/10/15 04:27:15;;;;;;;0.90;0.22;;;11.40;1.00;;;;;;5157204;27;20786;-60
2023/10/15 04:29:51;;;;;;;1.30;0.30;;;11.60;1.00;;;;;;5156026;27;20512;-61
2023/10/15 04:32:28;;;;;;;1.50;0.20;;;11.60;99.90;;;;;;5156883;27;20417;-61
2023/10/15 04:35:01;;;;;;;1.53;0.30;;;11.20;1.00;;;;;;5153117;27;20413;-61
2023/10/15 04:37:29;;;;;;;0.73;0.30;;;11.00;1.00;;;;;;5154331;27;20679;-60
2023/10/15 04:39:58;;;;;;;0.88;0.30;;;10.90;1.00;;;;;;5153640;27;20456;-59
2023/10/15 04:42:29;;;;;;;1.92;0.30;;;10.90;99.90;;;;;;5151900;27;20417;-59
2023/10/15 04:44:59;;;;;;;0.90;0.30;;;11.00;1.00;;;;;;5152368;27;20417;-59
2023/10/15 04:47:28;;;;;;;1.60;0.25;;;10.80;1.00;;;;;;5151787;27;20421;-59
2023/10/15 04:49:58;;;;;;;0.80;0.30;;;10.80;1.00;;;;;;5152501;27;20581;-60
2023/10/15 04:52:25;;;;;;;0.77;0.20;;;10.80;1.00;;;;;;5153237;27;20443;-59
2023/10/15 04:54:55;;;;;;;0.50;0.20;;;10.80;1.00;;;;;;5154964;27;20421;-59
2023/10/15 04:57:23;;;;;;;0.68;0.30;;;10.90;1.00;;;;;;5156364;27;20546;-59
2023/10/15 04:59:50;;;;;;;0.65;0.20;;;10.80;1.00;;;;;;5156208;27;20421;-59
2023/10/15 05:02:19;;;;;;;0.77;0.20;;;11.10;1.00;;;;;;5156003;27;20828;-59
2023/10/15 05:04:47;;;;;;;0.60;0.20;;;11.20;1.00;;;;;;5155924;27;20465;-59
2023/10/15 05:07:15;;;;;;;0.60;0.20;;;10.90;99.90;;;;;;5156529;27;20451;-59
2023/10/15 05:09:44;;;;;;;1.40;0.30;;;10.80;1.00;;;;;;5156569;27;20460;-59
2023/10/15 05:12:12;;;;;;;1.40;0.30;;;10.80;1.00;;;;;;5156584;27;20587;-59
2023/10/15 05:14:40;;;;;;;0.80;0.40;;;11.00;1.00;;;;;;5155021;27;20720;-60
2023/10/15 05:17:07;;;;;;;1.00;0.30;;;10.90;1.00;;;;;;5156075;27;20448;-59
2023/10/15 05:19:35;;;;;;;1.80;0.30;;;10.90;1.00;;;;;;5155731;27;20420;-60
2023/10/15 05:22:02;;;;;;;2.10;0.23;;;10.80;1.00;;;;;;5156349;27;20903;-59
2023/10/15 05:24:30;;;;;;;0.70;0.30;;;10.80;1.00;;;;;;5156294;27;20420;-59
2023/10/15 05:26:57;;;;;;;0.50;0.30;;;10.90;1.00;;;;;;5156021;27;20851;-59
2023/10/15 05:29:24;;;;;;;0.70;0.30;;;10.80;1.00;;;;;;5157719;27;20405;-59
2023/10/15 05:31:53;;;;;;;0.70;0.30;;;10.60;1.00;;;;;;5160036;27;20408;-59
2023/10/15 05:34:20;;;;;;;0.60;0.20;;;10.50;1.00;;;;;;5160740;27;20855;-58
2023/10/15 05:36:49;;;;;;;1.90;0.43;;;10.40;1.00;;;;;;5159665;27;20515;-58
2023/10/15 05:39:18;;;;;;;0.80;0.30;;;10.40;1.00;;;;;;5159683;27;20492;-58
2023/10/15 05:41:45;;;;;;;1.05;0.30;;;10.30;1.00;;;;;;5159334;27;20420;-59
2023/10/15 05:44:12;;;;;;;0.90;0.30;;;10.20;1.00;;;;;;5158739;27;20408;-59
2023/10/15 05:46:39;;;;;;;0.80;0.30;;;10.10;1.00;;;;;;5159912;27;20432;-59
2023/10/15 05:49:06;;;;;;;0.93;0.30;;;10.10;1.00;;;;;;5159003;27;20421;-58
2023/10/15 05:51:33;;;;;;;0.90;0.30;;;10.30;1.00;;;;;;5159288;27;20446;-58
2023/10/15 05:54:02;;;;;;;1.55;0.30;;;10.40;1.00;;;;;;5159231;27;20456;-60
2023/10/15 05:56:29;;;;;;;0.50;0.30;;;10.40;1.00;;;;;;5158329;27;20413;-60
2023/10/15 05:58:57;;;;;;;0.60;0.30;;;10.40;1.00;;;;;;5158788;27;20456;-60
2023/10/15 06:01:24;;;;;;;0.60;0.30;;;10.50;1.00;;;;;;5159046;27;20444;-60
2023/10/15 06:03:51;;;;;;;0.47;0.20;;;10.70;1.00;;;;;;5159619;27;20485;-60
2023/10/15 06:06:18;;;;;;;0.85;0.32;;;10.70;1.00;;;;;;5158745;27;20416;-60
2023/10/15 06:08:45;;;;;;;1.70;0.30;;;10.60;1.00;;;;;;5160082;27;20416;-60
2023/10/15 06:11:13;;;;;;;1.10;0.20;;;10.40;1.00;;;;;;5159377;27;20457;-60
2023/10/15 06:13:40;;;;;;;1.40;0.30;;;10.40;1.00;;;;;;5158640;27;20416;-60
2023/10/15 06:16:07;;;;;;;1.00;0.30;;;10.60;1.00;;;;;;5159537;27;20908;-60
2023/10/15 06:18:34;;;;;;;1.90;0.30;;;10.70;1.00;;;;;;5159413;27;20477;-59
2023/10/15 06:21:01;;;;;;;0.50;0.30;;;10.90;1.00;;;;;;5159234;27;20416;-61
2023/10/15 06:23:28;;;;;;;0.60;0.30;;;10.80;1.00;;;;;;5158785;27;20412;-60
2023/10/15 06:25:56;;;;;;;0.50;0.30;;;10.80;1.00;;;;;;5158985;27;20413;-60
2023/10/15 06:28:25;;;;;;;0.63;0.30;;;10.80;1.00;;;;;;5159026;27;20417;-59
2023/10/15 06:30:52;;;;;;;0.70;0.40;;;10.90;1.00;;;;;;5158161;27;20421;-58
2023/10/15 06:33:19;;;;;;;1.40;0.30;;;11.10;1.00;;;;;;5158391;27;20866;-60
2023/10/15 06:35:46;;;;;;;0.90;0.40;;;10.90;1.00;;;;;;5158678;27;20416;-60
2023/10/15 06:38:13;;;;;;;0.60;0.40;;;10.90;1.00;;;;;;5159046;27;20425;-59
2023/10/15 06:40:40;;;;;;;1.40;0.40;;;10.90;1.00;;;;;;5158261;27;20450;-60
2023/10/15 06:43:07;;;;;;;1.20;0.40;;;10.80;1.00;;;;;;5158480;27;20471;-59
2023/10/15 06:45:35;;;;;;;1.20;0.40;;;10.90;1.00;;;;;;5157930;27;20908;-59
2023/10/15 06:48:03;;;;;;;0.70;0.40;;;11.10;1.00;;;;;;5158671;27;20765;-60
2023/10/15 06:50:30;;;;;;;0.70;0.30;;;11.00;1.00;;;;;;5158424;27;20481;-60
2023/10/15 06:53:01;;;;;;;1.20;0.40;;;11.00;1.00;;;;;;5157895;27;20409;-60
2023/10/15 06:55:31;;;;;;;0.65;0.30;;;11.00;1.00;;;;;;5158123;27;20838;-59
2023/10/15 06:57:58;;;;;;;1.70;0.30;;;11.20;1.00;;;;;;5158721;27;20429;-59
2023/10/15 07:00:25;;;;;;;1.60;0.40;;;11.30;1.00;;;;;;5158326;27;20424;-59
2023/10/15 07:02:55;;;;;;;0.90;0.30;;;11.50;1.00;;;;;;5157707;27;20437;-59
2023/10/15 07:05:23;;;;;;;0.75;0.40;;;11.40;1.00;;;;;;5157634;27;20408;-59
2023/10/15 07:07:50;;;;;;;1.27;0.40;;;11.20;1.00;;;;;;5156221;27;20420;-59
2023/10/15 07:10:18;;;;;;;0.80;0.40;;;11.10;1.00;;;;;;5154180;27;20700;-58
2023/10/15 07:12:46;;;;;;;0.50;0.30;;;11.30;1.00;;;;;;5155244;27;20904;-58
2023/10/15 07:15:14;;;;;;;0.70;0.30;;;11.50;1.00;;;;;;5157274;27;20515;-59
2023/10/15 07:17:42;;;;;;;0.50;0.30;;;11.70;1.00;;;;;;5157808;27;20503;-59
2023/10/15 07:20:15;;;;;;;1.70;0.40;;;11.60;1.00;;;;;;5157857;27;20781;-59
2023/10/15 07:22:46;;;;;;;0.90;0.40;;;11.70;1.00;;;;;;5157596;27;20455;-59
2023/10/15 07:25:14;;;;;;;0.70;0.40;;;11.70;99.90;;;;;;5156466;27;20458;-59
2023/10/15 07:27:41;;;;;;;1.70;0.30;;;11.60;99.90;;;;;;5157549;27;20448;-59
2023/10/15 07:30:13;;;;;;;0.60;0.30;;;11.80;1.00;;;;;;5156411;27;20481;-59
2023/10/15 07:32:40;;;;;;;0.60;0.30;;;11.90;99.90;;;;;;5156447;27;20507;-59
2023/10/15 07:35:12;;;;;;;0.90;0.30;;;11.80;99.90;;;;;;5156111;27;20516;-59
2023/10/15 07:37:42;;;;;;;2.60;0.40;;;11.60;1.00;;;;;;5156956;27;20456;-59
2023/10/15 07:40:16;;;;;;;1.00;0.40;;;11.50;1.00;;;;;;5157218;27;20488;-59
2023/10/15 07:42:44;;;;;;;0.90;0.40;;;11.40;1.00;;;;;;5155872;27;20425;-58
2023/10/15 07:45:12;;;;;;;0.80;0.30;;;11.60;1.00;;;;;;5155139;27;20484;-59
2023/10/15 07:47:39;;;;;;;1.45;0.30;;;11.70;99.90;;;;;;5154678;27;20416;-59
2023/10/15 07:50:07;;;;;;;2.20;0.40;;;11.80;99.90;;;;;;5155582;27;20469;-59
2023/10/15 07:52:35;;;;;;;0.95;0.40;;;11.70;1.00;;;;;;5156568;27;20720;-60
2023/10/15 07:55:02;;;;;;;0.60;0.30;;;11.90;1.00;;;;;;5156653;27;20417;-60
2023/10/15 07:57:29;;;;;;;1.02;0.38;;;11.80;1.00;;;;;;5156331;27;20420;-60
2023/10/15 07:59:58;;;;;;;2.35;0.40;;;11.90;99.90;;;;;;5155265;27;20429;-60
2023/10/15 08:02:26;;;;;;;0.50;0.30;;;12.00;1.00;;;;;;5155057;27;20595;-60
2023/10/15 08:04:54;;;;;;;1.83;0.30;;;12.10;1.00;;;;;;5155871;27;20416;-60
2023/10/15 08:07:21;;;;;;;1.13;0.30;;;12.10;1.00;;;;;;5155564;27;20420;-60
2023/10/15 08:09:51;;;;;;;0.70;0.30;;;12.20;1.00;;;;;;5157013;27;20413;-60
2023/10/15 08:12:18;;;;;;;0.50;0.20;;;12.10;1.00;;;;;;5156569;27;20499;-61
2023/10/15 08:14:46;;;;;;;0.80;0.20;;;12.10;99.90;;;;;;5155603;27;20547;-59
2023/10/15 08:17:13;;;;;;;1.70;0.30;;;12.00;1.00;;;;;;5153761;27;20417;-62
2023/10/15 08:19:40;;;;;;;0.77;0.20;;;12.10;1.00;;;;;;5154435;27;20734;-62
2023/10/15 08:22:08;;;;;;;0.40;0.20;;;12.20;1.00;;;;;;5154197;27;20473;-62
2023/10/15 08:24:38;;;;;;;0.60;0.25;;;12.30;99.90;;;;;;5152822;27;21039;-61
2023/10/15 08:27:07;;;;;;;1.90;0.30;;;12.40;78.10;;;;;;5154947;27;20451;-60
2023/10/15 08:29:34;;;;;;;1.10;0.30;;;12.40;1.00;;;;;;5155899;27;20417;-60
2023/10/15 08:32:02;;;;;;;1.77;0.20;;;12.30;1.00;;;;;;5156341;27;20416;-60
2023/10/15 08:34:29;;;;;;;1.02;0.40;;;12.30;10.80;;;;;;5156730;27;20459;-60
2023/10/15 08:36:56;;;;;;;0.88;0.30;;;12.30;1.00;;;;;;5155573;27;21030;-61
2023/10/15 08:39:23;;;;;;;0.70;0.20;;;12.60;1.00;;;;;;5155666;27;20416;-61
2023/10/15 08:41:54;;;;;;;3.00;0.30;;;12.70;1.00;;;;;;5156826;27;20417;-59
2023/10/15 08:44:22;;;;;;;0.90;0.22;;;12.70;1.00;;;;;;5155823;27;20435;-61
2023/10/15 08:46:53;;;;;;;0.93;0.30;;;12.90;1.00;;;;;;5156702;27;20416;-59
2023/10/15 08:49:24;;;;;;;0.50;0.20;;;12.80;1.00;;;;;;5155222;27;20500;-59
2023/10/15 08:51:51;;;;;;;0.50;0.20;;;12.80;1.00;;;;;;5155463;27;20473;-61
2023/10/15 08:54:25;;;;;;;2.40;0.20;;;12.70;99.90;;;;;;5156288;27;20828;-59
2023/10/15 08:56:55;;;;;;;0.90;0.20;;;12.80;1.00;;;;;;5155377;27;21172;-61
2023/10/15 08:59:24;;;;;;;0.88;0.20;;;12.80;99.90;;;;;;5155178;27;20828;-61
2023/10/15 09:01:54;;;;;;;0.70;0.20;;;12.90;99.90;;;;;;5155703;27;20843;-61
2023/10/15 09:04:22;;;;;;;0.90;0.20;;;13.20;1.00;;;;;;5157937;27;20847;-60
2023/10/15 09:06:50;;;;;;;1.50;0.22;;;13.60;99.90;;;;;;5160219;27;20424;-60
2023/10/15 09:09:17;;;;;;;0.90;0.22;;;13.60;99.90;;;;;;5158375;27;20501;-60
2023/10/15 09:11:44;;;;;;;1.48;0.20;;;13.50;99.90;;;;;;5157269;27;20510;-59
2023/10/15 09:14:13;;;;;;;0.70;0.30;;;13.40;99.90;;;;;;5157520;27;20405;-62
2023/10/15 09:16:47;;;;;;;0.40;0.20;;;13.10;99.90;;;;;;5158925;27;20463;-58
2023/10/15 09:19:14;;;;;;;0.70;0.20;;;12.90;1.00;;;;;;5159779;27;20428;-59
2023/10/15 09:21:41;;;;;;;0.50;0.25;;;12.80;1.00;;;;;;5158410;27;20416;-58
2023/10/15 09:24:09;;;;;;;0.98;0.20;;;12.50;63.20;;;;;;5156047;27;20436;-59
2023/10/15 09:26:39;;;;;;;0.77;0.30;;;12.30;99.90;;;;;;5157184;27;20527;-61
2023/10/15 09:29:20;;;;;;;1.30;0.20;;;12.40;1.00;;;;;;5158075;27;20436;-59
2023/10/15 09:31:50;;;;;;;0.70;0.20;;;12.30;1.00;;;;;;5159720;27;20504;-59
2023/10/15 09:34:18;;;;;;;0.40;0.30;;;12.40;31.10;;;;;;5159927;27;20456;-59
2023/10/15 09:36:45;;;;;;;1.40;0.30;;;12.10;1.00;;;;;;5158785;27;20455;-60
2023/10/15 09:39:13;;;;;;;1.10;0.30;;;12.20;1.00;;;;;;5159036;27;20828;-59
2023/10/15 09:41:42;;;;;;;1.30;0.35;;;12.30;99.90;;;;;;5159514;27;20903;-59
2023/10/15 09:44:14;;;;;;;1.00;0.30;;;12.20;1.00;;;;;;5157532;27;20511;-59
2023/10/15 09:46:43;;;;;;;0.80;0.30;;;12.30;99.90;;;;;;5158450;27;20686;-59
2023/10/15 09:49:13;;;;;;;0.50;0.30;;;12.40;1.00;;;;;;5158447;27;20435;-59
2023/10/15 09:51:41;;;;;;;1.50;0.30;;;12.50;1.00;;;;;;5158779;27;20789;-59
2023/10/15 09:54:11;;;;;;;0.90;0.30;;;12.90;99.90;;;;;;5159464;27;20424;-59
2023/10/15 09:56:41;;;;;;;2.80;0.30;;;13.10;99.90;;;;;;5153666;27;20455;-59
2023/10/15 09:59:09;;;;;;;0.70;0.30;;;12.90;1.00;;;;;;5137415;27;20498;-59
2023/10/15 10:01:41;;;;;;;0.80;0.22;;;13.00;1.00;;;;;;5146558;27;20435;-60
2023/10/15 10:04:48;;;;;;;0.80;0.40;;;13.30;1.00;;;;;;5158194;27;20435;-59
2023/10/15 10:07:47;;;;;;;1.13;0.30;;;13.20;99.90;;;;;;5158672;27;20855;-59
2023/10/15 10:10:52;;;;;;;0.65;0.30;;;13.50;99.90;;;;;;5157439;27;20432;-59
2023/10/15 10:13:56;;;;;;;0.90;0.20;;;13.80;1.00;;;;;;5137585;27;20419;-60
2023/10/15 10:16:26;;;;;;;0.50;0.20;;;13.90;99.90;;;;;;5119637;27;20725;-60
2023/10/15 10:18:54;;;;;;;0.60;0.20;;;13.60;1.00;;;;;;5138030;27;20465;-60
2023/10/15 10:21:29;;;;;;;0.80;0.20;;;13.40;92.10;;;;;;5137241;27;20787;-60
2023/10/15 10:23:58;;;;;;;0.40;0.20;;;13.40;58.30;;;;;;5137740;27;20414;-60
2023/10/15 10:26:28;;;;;;;1.08;0.20;;;13.40;59.80;;;;;;5138175;27;20411;-60
2023/10/15 10:28:56;;;;;;;0.70;0.20;;;13.10;93.90;;;;;;5136473;27;20411;-60
2023/10/15 10:31:23;;;;;;;0.50;0.20;;;13.20;99.90;;;;;;5135577;27;20426;-60
2023/10/15 10:33:54;;;;;;;0.70;0.20;;;13.10;39.00;;;;;;5137446;27;20728;-60
2023/10/15 10:36:25;;;;;;;0.40;0.20;;;12.90;1.00;;;;;;5137905;27;20422;-60
2023/10/15 10:39:00;;;;;;;0.40;0.30;;;12.90;1.00;;;;;;5142666;27;20602;-60
2023/10/15 10:41:38;;;;;;;0.52;0.20;;;13.20;27.90;;;;;;5157845;27;20811;-60
2023/10/15 10:44:06;;;;;;;1.00;0.30;;;13.60;10.70;;;;;;5157296;27;20465;-60
2023/10/15 10:46:42;;;;;;;1.10;0.20;;;14.00;1.00;;;;;;5157401;27;20417;-60
2023/10/15 10:49:13;;;;;;;0.50;0.20;;;14.30;1.00;;;;;;5155811;27;20489;-61
2023/10/15 10:51:42;;;;;;;1.42;0.20;;;14.70;1.00;;;;;;5154264;27;20420;-61
2023/10/15 10:54:28;;;;;;;0.50;0.20;;;15.00;1.00;;;;;;5157176;27;20417;-61
2023/10/15 10:56:56;;;;;;;0.82;0.20;;;14.90;1.00;;;;;;5156060;27;20507;-61
2023/10/15 10:59:23;;;;;;;0.45;0.20;;;14.80;1.00;;;;;;5156412;27;20416;-62
2023/10/15 11:01:51;;;;;;;0.40;0.20;;;14.70;1.00;;;;;;5156430;27;20789;-62
2023/10/15 11:04:18;;;;;;;0.70;0.17;;;14.30;1.00;;;;;;5157028;27;20438;-62
2023/10/15 11:06:48;;;;;;;0.70;0.20;;;14.10;1.00;;;;;;5155880;27;20417;-62
2023/10/15 11:09:16;;;;;;;0.40;0.10;;;14.10;1.00;;;;;;5155599;27;20740;-62
2023/10/15 11:11:44;;;;;;;0.47;0.20;;;13.70;1.00;;;;;;5155291;27;20871;-62
2023/10/15 11:14:12;;;;;;;0.80;0.20;;;13.50;1.00;;;;;;5155627;27;20852;-62
2023/10/15 11:16:40;;;;;;;0.50;0.20;;;13.30;1.00;;;;;;5155733;27;20416;-61
2023/10/15 11:19:15;;;;;;;0.80;0.10;;;13.10;1.00;;;;;;5154751;27;20416;-61
2023/10/15 11:21:42;;;;;;;0.70;0.20;;;12.90;1.00;;;;;;5154910;27;20423;-62
2023/10/15 11:24:11;;;;;;;0.40;0.20;;;13.10;1.00;;;;;;5153618;27;20421;-62
2023/10/15 11:26:41;;;;;;;0.50;0.13;;;13.30;1.00;;;;;;5154551;27;20412;-62
2023/10/15 11:29:09;;;;;;;0.50;0.20;;;13.10;1.00;;;;;;5155761;27;20887;-62
2023/10/15 11:31:37;;;;;;;0.70;0.30;;;12.90;1.00;;;;;;5156618;27;20412;-62
2023/10/15 11:34:05;;;;;;;0.90;0.30;;;12.90;1.00;;;;;;5155479;27;21004;-62
2023/10/15 11:36:35;;;;;;;0.60;0.30;;;13.10;1.00;;;;;;5155388;27;20425;-62
2023/10/15 11:39:08;;;;;;;0.40;0.20;;;13.20;1.00;;;;;;5156555;27;20490;-58
2023/10/15 11:41:38;;;;;;;0.80;0.30;;;13.30;1.00;;;;;;5157460;27;20486;-58
2023/10/15 11:44:08;;;;;;;0.73;0.20;;;13.40;1.00;;;;;;5156290;27;20420;-57
2023/10/15 11:46:36;;;;;;;0.57;0.20;;;13.70;1.00;;;;;;5155568;27;20429;-58
2023/10/15 11:49:04;;;;;;;0.50;0.20;;;13.60;1.00;;;;;;5154824;27;20753;-57
2023/10/15 11:51:31;;;;;;;0.50;0.17;;;13.40;1.00;;;;;;5155106;27;20769;-57
2023/10/15 11:54:01;;;;;;;0.93;0.20;;;13.80;1.00;;;;;;5153668;27;20433;-56
2023/10/15 11:56:31;;;;;;;0.63;0.30;;;14.00;1.00;;;;;;5154671;27;20477;-57
2023/10/15 11:58:59;;;;;;;0.70;0.22;;;14.20;1.00;;;;;;5153373;27;20427;-58
2023/10/15 12:01:27;;;;;;;0.50;0.20;;;14.20;1.00;;;;;;5152883;27;20682;-57
2023/10/15 12:03:57;;;;;;;0.70;0.20;;;14.10;1.00;;;;;;5155287;27;20431;-58
2023/10/15 12:06:24;;;;;;;0.50;0.20;;;14.30;1.00;;;;;;5155194;27;20880;-58
2023/10/15 12:08:52;;;;;;;2.60;0.20;;;14.30;1.00;;;;;;5154136;27;20417;-57
2023/10/15 12:11:19;;;;;;;0.57;0.20;;;14.20;1.00;;;;;;5152683;27;20425;-58
2023/10/15 12:13:47;;;;;;;0.30;0.20;;;14.10;1.00;;;;;;5153363;27;20923;-57
2023/10/15 12:16:16;;;;;;;0.50;0.20;;;14.10;1.00;;;;;;5154396;27;20428;-57
2023/10/15 12:18:43;;;;;;;0.80;0.30;;;13.90;1.00;;;;;;5154190;27;20419;-57
2023/10/15 12:21:10;;;;;;;1.00;0.30;;;14.00;1.00;;;;;;5155208;27;20424;-56
2023/10/15 12:23:37;;;;;;;0.50;0.20;;;14.20;1.00;;;;;;5155388;27;20425;-57
2023/10/15 12:26:07;;;;;;;0.70;0.28;;;14.10;1.00;;;;;;5155217;27;20915;-58
2023/10/15 12:28:43;;;;;;;0.50;0.20;;;14.00;1.00;;;;;;5156187;27;20424;-58
2023/10/15 12:31:10;;;;;;;0.77;0.20;;;13.90;1.00;;;;;;5155516;27;20747;-55
2023/10/15 12:33:39;;;;;;;0.50;0.20;;;13.80;1.00;;;;;;5153707;27;20417;-55
2023/10/15 12:36:09;;;;;;;0.60;0.20;;;13.90;1.00;;;;;;5154746;27;20417;-58
2023/10/15 12:38:39;;;;;;;0.40;0.20;;;14.00;1.00;;;;;;5153950;27;20510;-59
2023/10/15 12:41:06;;;;;;;0.50;0.20;;;14.10;1.00;;;;;;5155596;27;20839;-59
2023/10/15 12:43:33;;;;;;;0.50;0.20;;;14.10;1.00;;;;;;5155944;27;20481;-58
2023/10/15 12:46:00;;;;;;;0.50;0.20;;;14.20;1.00;;;;;;5153250;27;20424;-59
2023/10/15 12:48:29;;;;;;;0.60;0.20;;;14.00;1.00;;;;;;5152638;27;20424;-58
2023/10/15 12:50:57;;;;;;;0.50;0.20;;;14.10;1.00;;;;;;5153422;27;20550;-58
2023/10/15 12:53:25;;;;;;;0.50;0.20;;;13.70;1.00;;;;;;5153342;27;20416;-58
2023/10/15 12:55:52;;;;;;;0.70;0.20;;;13.60;1.00;;;;;;5154530;27;20409;-58
2023/10/15 12:58:20;;;;;;;0.93;0.30;;;13.70;1.00;;;;;;5154773;27;20495;-56
2023/10/15 13:00:51;;;;;;;1.15;0.20;;;13.70;1.00;;;;;;5154595;27;20815;-58
2023/10/15 13:03:18;;;;;;;1.00;0.20;;;13.50;1.00;;;;;;5156202;27;20436;-57
2023/10/15 13:05:45;;;;;;;0.50;0.20;;;13.60;1.00;;;;;;5154902;27;20432;-57
2023/10/15 13:08:14;;;;;;;0.40;0.20;;;13.30;1.00;;;;;;5155093;27;20413;-57